sensor_id;sensor_type;location;lat;lon;timestamp;pressure;altitude;pressure_sealevel;temperature;humidity
41230;BME280;26964;50.428;19.218;2023-04-15T00:00:28;1005.0;;;10.0;68.7
41230;BME280;26964;50.428;19.218;2023-04-15T00:01:29;1005.1;;;10.0;68.7
41230;BME280;26964;50.428;19.218;2023-04-15T00:02:28;1005.0;;;10.0;68.7
41230;BME280;26964;50.428;19.218;2023-04-15T00:03:27;1005.1;;;10.0;68.7
41230;BME280;26964;50.428;19.218;2023-04-15T00:04:27;1005.2;;;10.0;68.7
41230;BME280;26964;50.428;19.218;2023-04-15T00:05:28;1005.1;;;9.9;68.7
41230;BME280;26964;50.428;19.218;2023-04-15T00:06:28;1005.1;;;9.9;68.8
41230;BME280;26964;50.428;19.218;2023-04-15T00:07:28;1005.1;;;9.9;68.8
41230;BME280;26964;50.428;19.218;2023-04-15T00:08:28;1005.2;;;9.9;68.8
41230;BME280;26964;50.428;19.218;2023-04-15T00:09:27;1005.0;;;9.9;68.8
41230;BME280;26964;50.428;19.218;2023-04-15T00:10:27;1005.0;;;9.9;68.8
41230;BME280;26964;50.428;19.218;2023-04-15T00:11:27;1005.0;;;9.9;68.8
41230;BME280;26964;50.428;19.218;2023-04-15T00:12:27;1005.1;;;9.9;68.9
41230;BME280;26964;50.428;19.218;2023-04-15T00:13:28;1005.0;;;9.9;68.9
41230;BME280;26964;50.428;19.218;2023-04-15T00:14:28;1005.0;;;9.9;68.9
41230;BME280;26964;50.428;19.218;2023-04-15T00:15:27;1005.1;;;9.9;68.9
41230;BME280;26964;50.428;19.218;2023-04-15T00:16:28;1005.0;;;9.9;68.9
41230;BME280;26964;50.428;19.218;2023-04-15T00:17:28;1005.1;;;9.9;68.9
41230;BME280;26964;50.428;19.218;2023-04-15T00:18:28;1005.0;;;9.9;68.9
41230;BME280;26964;50.428;19.218;2023-04-15T00:19:28;1005.1;;;9.9;69.0
41230;BME280;26964;50.428;19.218;2023-04-15T00:20:27;1005.1;;;9.9;69.0
41230;BME280;26964;50.428;19.218;2023-04-15T00:21:28;1005.1;;;9.9;69.0
41230;BME280;26964;50.428;19.218;2023-04-15T00:22:28;1005.1;;;9.8;69.0
41230;BME280;26964;50.428;19.218;2023-04-15T00:23:27;1005.1;;;9.8;69.0
41230;BME280;26964;50.428;19.218;2023-04-15T00:24:28;1005.1;;;9.8;69.0
41230;BME280;26964;50.428;19.218;2023-04-15T00:25:28;1005.2;;;9.8;69.2
41230;BME280;26964;50.428;19.218;2023-04-15T00:26:28;1005.2;;;9.8;69.1
41230;BME280;26964;50.428;19.218;2023-04-15T00:27:28;1005.2;;;9.8;69.1
41230;BME280;26964;50.428;19.218;2023-04-15T00:28:28;1005.2;;;9.8;69.1
41230;BME280;26964;50.428;19.218;2023-04-15T00:29:28;1005.1;;;9.8;69.1
41230;BME280;26964;50.428;19.218;2023-04-15T00:30:28;1005.1;;;9.8;69.1
41230;BME280;26964;50.428;19.218;2023-04-15T00:31:27;1005.2;;;9.8;69.2
41230;BME280;26964;50.428;19.218;2023-04-15T00:32:28;1005.2;;;9.8;69.2
41230;BME280;26964;50.428;19.218;2023-04-15T00:33:28;1005.2;;;9.8;69.2
41230;BME280;26964;50.428;19.218;2023-04-15T00:34:27;1005.2;;;9.8;69.3
41230;BME280;26964;50.428;19.218;2023-04-15T00:35:27;1005.2;;;9.8;69.4
41230;BME280;26964;50.428;19.218;2023-04-15T00:36:28;1005.1;;;9.8;69.5
41230;BME280;26964;50.428;19.218;2023-04-15T00:37:28;1005.2;;;9.8;69.4
41230;BME280;26964;50.428;19.218;2023-04-15T00:38:27;1005.1;;;9.7;69.5
41230;BME280;26964;50.428;19.218;2023-04-15T00:39:27;1005.2;;;9.7;69.4
41230;BME280;26964;50.428;19.218;2023-04-15T00:40:28;1005.2;;;9.7;69.4
41230;BME280;26964;50.428;19.218;2023-04-15T00:41:28;1005.3;;;9.7;69.5
41230;BME280;26964;50.428;19.218;2023-04-15T00:42:27;1005.3;;;9.7;69.4
41230;BME280;26964;50.428;19.218;2023-04-15T00:43:28;1005.3;;;9.7;69.5
41230;BME280;26964;50.428;19.218;2023-04-15T00:44:29;1005.4;;;9.7;69.5
41230;BME280;26964;50.428;19.218;2023-04-15T00:45:27;1005.3;;;9.7;69.5
41230;BME280;26964;50.428;19.218;2023-04-15T00:46:28;1005.4;;;9.7;69.5
41230;BME280;26964;50.428;19.218;2023-04-15T00:47:32;1005.4;;;9.7;69.5
41230;BME280;26964;50.428;19.218;2023-04-15T00:48:27;1005.4;;;9.7;69.5
41230;BME280;26964;50.428;19.218;2023-04-15T00:49:28;1005.4;;;9.7;69.6
41230;BME280;26964;50.428;19.218;2023-04-15T00:50:29;1005.5;;;9.7;69.6
41230;BME280;26964;50.428;19.218;2023-04-15T00:51:28;1005.5;;;9.7;69.6
41230;BME280;26964;50.428;19.218;2023-04-15T00:52:28;1005.4;;;9.7;69.6
41230;BME280;26964;50.428;19.218;2023-04-15T00:53:27;1005.4;;;9.7;69.7
41230;BME280;26964;50.428;19.218;2023-04-15T00:54:27;1005.5;;;9.6;69.6
41230;BME280;26964;50.428;19.218;2023-04-15T00:55:28;1005.5;;;9.6;69.7
41230;BME280;26964;50.428;19.218;2023-04-15T00:56:28;1005.5;;;9.7;69.8
41230;BME280;26964;50.428;19.218;2023-04-15T00:57:27;1005.5;;;9.6;70.0
41230;BME280;26964;50.428;19.218;2023-04-15T00:58:28;1005.4;;;9.6;69.8
41230;BME280;26964;50.428;19.218;2023-04-15T00:59:27;1005.5;;;9.6;69.8
41230;BME280;26964;50.428;19.218;2023-04-15T01:00:28;1005.5;;;9.6;69.8
41230;BME280;26964;50.428;19.218;2023-04-15T01:01:27;1005.5;;;9.6;69.8
41230;BME280;26964;50.428;19.218;2023-04-15T01:02:27;1005.5;;;9.6;69.8
41230;BME280;26964;50.428;19.218;2023-04-15T01:03:28;1005.6;;;9.6;69.8
41230;BME280;26964;50.428;19.218;2023-04-15T01:04:27;1005.5;;;9.6;69.8
41230;BME280;26964;50.428;19.218;2023-04-15T01:05:27;1005.6;;;9.6;69.8
41230;BME280;26964;50.428;19.218;2023-04-15T01:06:27;1005.6;;;9.6;69.8
41230;BME280;26964;50.428;19.218;2023-04-15T01:07:28;1005.6;;;9.6;69.8
41230;BME280;26964;50.428;19.218;2023-04-15T01:08:27;1005.6;;;9.6;69.9
41230;BME280;26964;50.428;19.218;2023-04-15T01:09:28;1005.5;;;9.6;69.8
41230;BME280;26964;50.428;19.218;2023-04-15T01:10:27;1005.5;;;9.6;69.9
41230;BME280;26964;50.428;19.218;2023-04-15T01:11:27;1005.5;;;9.6;69.9
41230;BME280;26964;50.428;19.218;2023-04-15T01:12:27;1005.4;;;9.6;69.9
41230;BME280;26964;50.428;19.218;2023-04-15T01:13:27;1005.6;;;9.6;69.9
41230;BME280;26964;50.428;19.218;2023-04-15T01:14:27;1005.5;;;9.6;69.9
41230;BME280;26964;50.428;19.218;2023-04-15T01:15:27;1005.5;;;9.6;69.9
41230;BME280;26964;50.428;19.218;2023-04-15T01:16:27;1005.5;;;9.6;69.9
41230;BME280;26964;50.428;19.218;2023-04-15T01:17:28;1005.6;;;9.6;69.9
41230;BME280;26964;50.428;19.218;2023-04-15T01:18:27;1005.5;;;9.6;69.9
41230;BME280;26964;50.428;19.218;2023-04-15T01:19:27;1005.5;;;9.6;70.0
41230;BME280;26964;50.428;19.218;2023-04-15T01:20:27;1005.5;;;9.6;70.0
41230;BME280;26964;50.428;19.218;2023-04-15T01:21:28;1005.6;;;9.6;70.0
41230;BME280;26964;50.428;19.218;2023-04-15T01:22:28;1005.5;;;9.6;70.0
41230;BME280;26964;50.428;19.218;2023-04-15T01:23:27;1005.5;;;9.6;70.0
41230;BME280;26964;50.428;19.218;2023-04-15T01:24:30;1005.5;;;9.6;70.0
41230;BME280;26964;50.428;19.218;2023-04-15T01:25:31;1005.5;;;9.6;70.0
41230;BME280;26964;50.428;19.218;2023-04-15T01:26:39;1005.5;;;9.5;70.0
41230;BME280;26964;50.428;19.218;2023-04-15T01:27:27;1005.5;;;9.5;70.1
41230;BME280;26964;50.428;19.218;2023-04-15T01:28:28;1005.5;;;9.5;70.1
41230;BME280;26964;50.428;19.218;2023-04-15T01:29:30;1005.5;;;9.5;70.0
41230;BME280;26964;50.428;19.218;2023-04-15T01:30:33;1005.5;;;9.5;70.1
41230;BME280;26964;50.428;19.218;2023-04-15T01:31:27;1005.5;;;9.5;70.1
41230;BME280;26964;50.428;19.218;2023-04-15T01:32:27;1005.5;;;9.5;70.1
41230;BME280;26964;50.428;19.218;2023-04-15T01:33:34;1005.5;;;9.5;70.1
41230;BME280;26964;50.428;19.218;2023-04-15T01:34:27;1005.4;;;9.5;70.1
41230;BME280;26964;50.428;19.218;2023-04-15T01:35:27;1005.5;;;9.5;70.1
41230;BME280;26964;50.428;19.218;2023-04-15T01:36:28;1005.5;;;9.5;70.2
41230;BME280;26964;50.428;19.218;2023-04-15T01:37:28;1005.4;;;9.5;70.2
41230;BME280;26964;50.428;19.218;2023-04-15T01:38:27;1005.5;;;9.5;70.2
41230;BME280;26964;50.428;19.218;2023-04-15T01:39:27;1005.5;;;9.5;70.2
41230;BME280;26964;50.428;19.218;2023-04-15T01:40:27;1005.4;;;9.5;70.2
41230;BME280;26964;50.428;19.218;2023-04-15T01:41:27;1005.4;;;9.5;70.2
41230;BME280;26964;50.428;19.218;2023-04-15T01:42:26;1005.4;;;9.5;70.2
41230;BME280;26964;50.428;19.218;2023-04-15T01:43:29;1005.5;;;9.5;70.2
41230;BME280;26964;50.428;19.218;2023-04-15T01:44:27;1005.5;;;9.5;70.3
41230;BME280;26964;50.428;19.218;2023-04-15T01:45:33;1005.4;;;9.5;70.2
41230;BME280;26964;50.428;19.218;2023-04-15T01:46:32;1005.5;;;9.5;70.3
41230;BME280;26964;50.428;19.218;2023-04-15T01:47:34;1005.5;;;9.5;70.3
41230;BME280;26964;50.428;19.218;2023-04-15T01:48:36;1005.5;;;9.5;70.3
41230;BME280;26964;50.428;19.218;2023-04-15T01:49:33;1005.5;;;9.5;70.3
41230;BME280;26964;50.428;19.218;2023-04-15T01:50:36;1005.6;;;9.5;70.3
41230;BME280;26964;50.428;19.218;2023-04-15T01:51:33;1005.5;;;9.5;70.3
41230;BME280;26964;50.428;19.218;2023-04-15T01:52:43;1005.5;;;9.5;70.3
41230;BME280;26964;50.428;19.218;2023-04-15T01:53:39;1005.6;;;9.5;70.3
41230;BME280;26964;50.428;19.218;2023-04-15T01:54:33;1005.6;;;9.5;70.3
41230;BME280;26964;50.428;19.218;2023-04-15T01:55:32;1005.6;;;9.5;70.3
41230;BME280;26964;50.428;19.218;2023-04-15T01:56:33;1005.6;;;9.5;70.3
41230;BME280;26964;50.428;19.218;2023-04-15T01:57:36;1005.6;;;9.5;70.3
41230;BME280;26964;50.428;19.218;2023-04-15T01:58:33;1005.7;;;9.5;70.3
41230;BME280;26964;50.428;19.218;2023-04-15T01:59:32;1005.6;;;9.4;70.3
41230;BME280;26964;50.428;19.218;2023-04-15T02:00:32;1005.6;;;9.4;70.3
41230;BME280;26964;50.428;19.218;2023-04-15T02:01:32;1005.6;;;9.4;70.3
41230;BME280;26964;50.428;19.218;2023-04-15T02:02:33;1005.7;;;9.4;70.4
41230;BME280;26964;50.428;19.218;2023-04-15T02:03:32;1005.7;;;9.4;70.4
41230;BME280;26964;50.428;19.218;2023-04-15T02:04:33;1005.8;;;9.4;70.4
41230;BME280;26964;50.428;19.218;2023-04-15T02:05:34;1005.8;;;9.4;70.4
41230;BME280;26964;50.428;19.218;2023-04-15T02:06:33;1005.9;;;9.4;70.4
41230;BME280;26964;50.428;19.218;2023-04-15T02:07:33;1005.9;;;9.4;70.4
41230;BME280;26964;50.428;19.218;2023-04-15T02:08:33;1005.8;;;9.4;70.4
41230;BME280;26964;50.428;19.218;2023-04-15T02:09:32;1005.9;;;9.4;70.4
41230;BME280;26964;50.428;19.218;2023-04-15T02:10:34;1005.9;;;9.4;70.4
41230;BME280;26964;50.428;19.218;2023-04-15T02:11:32;1006.0;;;9.4;70.5
41230;BME280;26964;50.428;19.218;2023-04-15T02:12:39;1005.9;;;9.4;70.5
41230;BME280;26964;50.428;19.218;2023-04-15T02:13:33;1005.9;;;9.4;70.5
41230;BME280;26964;50.428;19.218;2023-04-15T02:14:34;1005.9;;;9.4;70.5
41230;BME280;26964;50.428;19.218;2023-04-15T02:15:33;1005.9;;;9.4;70.5
41230;BME280;26964;50.428;19.218;2023-04-15T02:16:37;1005.9;;;9.4;70.5
41230;BME280;26964;50.428;19.218;2023-04-15T02:17:50;1006.1;;;9.4;70.5
41230;BME280;26964;50.428;19.218;2023-04-15T02:18:33;1006.0;;;9.4;70.5
41230;BME280;26964;50.428;19.218;2023-04-15T02:19:33;1006.0;;;9.4;70.5
41230;BME280;26964;50.428;19.218;2023-04-15T02:20:33;1005.9;;;9.4;70.5
41230;BME280;26964;50.428;19.218;2023-04-15T02:21:33;1005.9;;;9.3;70.5
41230;BME280;26964;50.428;19.218;2023-04-15T02:22:32;1006.0;;;9.4;70.5
41230;BME280;26964;50.428;19.218;2023-04-15T02:23:33;1006.0;;;9.4;70.5
41230;BME280;26964;50.428;19.218;2023-04-15T02:24:33;1005.9;;;9.3;70.6
41230;BME280;26964;50.428;19.218;2023-04-15T02:25:33;1005.9;;;9.3;70.6
41230;BME280;26964;50.428;19.218;2023-04-15T02:26:33;1005.9;;;9.4;70.6
41230;BME280;26964;50.428;19.218;2023-04-15T02:27:34;1006.0;;;9.3;70.6
41230;BME280;26964;50.428;19.218;2023-04-15T02:28:33;1006.0;;;9.3;70.6
41230;BME280;26964;50.428;19.218;2023-04-15T02:29:33;1006.0;;;9.3;70.6
41230;BME280;26964;50.428;19.218;2023-04-15T02:30:34;1005.9;;;9.3;70.6
41230;BME280;26964;50.428;19.218;2023-04-15T02:31:33;1006.0;;;9.3;70.6
41230;BME280;26964;50.428;19.218;2023-04-15T02:32:34;1006.0;;;9.3;70.6
41230;BME280;26964;50.428;19.218;2023-04-15T02:33:33;1005.9;;;9.3;70.6
41230;BME280;26964;50.428;19.218;2023-04-15T02:34:36;1006.0;;;9.3;70.6
41230;BME280;26964;50.428;19.218;2023-04-15T02:35:33;1006.0;;;9.3;70.6
41230;BME280;26964;50.428;19.218;2023-04-15T02:36:33;1006.0;;;9.3;70.6
41230;BME280;26964;50.428;19.218;2023-04-15T02:37:35;1006.0;;;9.3;70.6
41230;BME280;26964;50.428;19.218;2023-04-15T02:38:33;1006.0;;;9.3;70.6
41230;BME280;26964;50.428;19.218;2023-04-15T02:39:33;1006.0;;;9.3;70.6
41230;BME280;26964;50.428;19.218;2023-04-15T02:40:33;1005.8;;;9.2;70.6
41230;BME280;26964;50.428;19.218;2023-04-15T02:41:33;1006.0;;;9.2;70.6
41230;BME280;26964;50.428;19.218;2023-04-15T02:42:32;1005.9;;;9.2;70.6
41230;BME280;26964;50.428;19.218;2023-04-15T02:43:33;1005.9;;;9.2;70.6
41230;BME280;26964;50.428;19.218;2023-04-15T02:44:33;1006.0;;;9.2;70.6
41230;BME280;26964;50.428;19.218;2023-04-15T02:45:32;1006.0;;;9.2;70.6
41230;BME280;26964;50.428;19.218;2023-04-15T02:46:34;1006.0;;;9.2;70.6
41230;BME280;26964;50.428;19.218;2023-04-15T02:47:32;1006.0;;;9.1;70.6
41230;BME280;26964;50.428;19.218;2023-04-15T02:48:32;1006.0;;;9.1;70.6
41230;BME280;26964;50.428;19.218;2023-04-15T02:49:33;1006.1;;;9.1;70.6
41230;BME280;26964;50.428;19.218;2023-04-15T02:50:33;1006.1;;;9.1;70.7
41230;BME280;26964;50.428;19.218;2023-04-15T02:51:33;1006.2;;;9.1;70.7
41230;BME280;26964;50.428;19.218;2023-04-15T02:52:33;1006.1;;;9.1;70.6
41230;BME280;26964;50.428;19.218;2023-04-15T02:53:32;1006.1;;;9.1;70.4
41230;BME280;26964;50.428;19.218;2023-04-15T02:54:33;1006.1;;;9.1;70.7
41230;BME280;26964;50.428;19.218;2023-04-15T02:55:33;1006.2;;;9.1;70.6
41230;BME280;26964;50.428;19.218;2023-04-15T02:56:33;1006.2;;;9.0;70.6
41230;BME280;26964;50.428;19.218;2023-04-15T02:57:33;1006.2;;;9.0;70.6
41230;BME280;26964;50.428;19.218;2023-04-15T02:58:34;1006.3;;;9.0;70.6
41230;BME280;26964;50.428;19.218;2023-04-15T02:59:33;1006.2;;;9.0;70.6
41230;BME280;26964;50.428;19.218;2023-04-15T03:00:33;1006.3;;;9.0;70.6
41230;BME280;26964;50.428;19.218;2023-04-15T03:01:33;1006.2;;;8.9;70.6
41230;BME280;26964;50.428;19.218;2023-04-15T03:02:33;1006.3;;;8.9;70.6
41230;BME280;26964;50.428;19.218;2023-04-15T03:03:33;1006.3;;;8.9;70.6
41230;BME280;26964;50.428;19.218;2023-04-15T03:04:33;1006.2;;;8.9;70.6
41230;BME280;26964;50.428;19.218;2023-04-15T03:05:33;1006.3;;;8.9;70.5
41230;BME280;26964;50.428;19.218;2023-04-15T03:06:33;1006.3;;;8.8;70.5
41230;BME280;26964;50.428;19.218;2023-04-15T03:07:33;1006.2;;;8.8;70.6
41230;BME280;26964;50.428;19.218;2023-04-15T03:08:33;1006.3;;;8.7;70.6
41230;BME280;26964;50.428;19.218;2023-04-15T03:09:33;1006.3;;;8.7;70.6
41230;BME280;26964;50.428;19.218;2023-04-15T03:10:33;1006.4;;;8.7;70.6
41230;BME280;26964;50.428;19.218;2023-04-15T03:11:32;1006.3;;;8.7;70.7
41230;BME280;26964;50.428;19.218;2023-04-15T03:12:33;1006.3;;;8.6;70.7
41230;BME280;26964;50.428;19.218;2023-04-15T03:13:32;1006.4;;;8.6;70.7
41230;BME280;26964;50.428;19.218;2023-04-15T03:14:33;1006.4;;;8.6;70.8
41230;BME280;26964;50.428;19.218;2023-04-15T03:15:32;1006.4;;;8.6;70.7
41230;BME280;26964;50.428;19.218;2023-04-15T03:16:33;1006.4;;;8.6;70.7
41230;BME280;26964;50.428;19.218;2023-04-15T03:17:33;1006.4;;;8.6;70.8
41230;BME280;26964;50.428;19.218;2023-04-15T03:18:32;1006.5;;;8.5;70.8
41230;BME280;26964;50.428;19.218;2023-04-15T03:19:33;1006.5;;;8.5;70.8
41230;BME280;26964;50.428;19.218;2023-04-15T03:20:33;1006.5;;;8.5;70.8
41230;BME280;26964;50.428;19.218;2023-04-15T03:21:33;1006.5;;;8.5;70.8
41230;BME280;26964;50.428;19.218;2023-04-15T03:22:32;1006.4;;;8.5;70.8
41230;BME280;26964;50.428;19.218;2023-04-15T03:23:33;1006.4;;;8.5;70.8
41230;BME280;26964;50.428;19.218;2023-04-15T03:24:33;1006.4;;;8.4;70.8
41230;BME280;26964;50.428;19.218;2023-04-15T03:25:33;1006.4;;;8.4;70.9
41230;BME280;26964;50.428;19.218;2023-04-15T03:26:32;1006.4;;;8.4;70.9
41230;BME280;26964;50.428;19.218;2023-04-15T03:27:33;1006.4;;;8.4;70.9
41230;BME280;26964;50.428;19.218;2023-04-15T03:28:33;1006.4;;;8.4;70.9
41230;BME280;26964;50.428;19.218;2023-04-15T03:29:32;1006.3;;;8.4;70.8
41230;BME280;26964;50.428;19.218;2023-04-15T03:30:33;1006.4;;;8.4;70.8
41230;BME280;26964;50.428;19.218;2023-04-15T03:31:33;1006.4;;;8.4;70.9
41230;BME280;26964;50.428;19.218;2023-04-15T03:32:33;1006.3;;;8.4;70.9
41230;BME280;26964;50.428;19.218;2023-04-15T03:33:33;1006.3;;;8.4;70.9
41230;BME280;26964;50.428;19.218;2023-04-15T03:34:33;1006.4;;;8.3;70.9
41230;BME280;26964;50.428;19.218;2023-04-15T03:35:32;1006.4;;;8.3;70.9
41230;BME280;26964;50.428;19.218;2023-04-15T03:36:33;1006.4;;;8.3;70.9
41230;BME280;26964;50.428;19.218;2023-04-15T03:37:32;1006.5;;;8.3;70.9
41230;BME280;26964;50.428;19.218;2023-04-15T03:38:32;1006.5;;;8.3;70.9
41230;BME280;26964;50.428;19.218;2023-04-15T03:39:32;1006.5;;;8.3;70.9
41230;BME280;26964;50.428;19.218;2023-04-15T03:40:32;1006.5;;;8.3;70.9
41230;BME280;26964;50.428;19.218;2023-04-15T03:41:32;1006.5;;;8.3;71.0
41230;BME280;26964;50.428;19.218;2023-04-15T03:42:33;1006.5;;;8.2;71.0
41230;BME280;26964;50.428;19.218;2023-04-15T03:43:33;1006.5;;;8.2;71.0
41230;BME280;26964;50.428;19.218;2023-04-15T03:44:33;1006.6;;;8.2;71.0
41230;BME280;26964;50.428;19.218;2023-04-15T03:45:33;1006.6;;;8.2;71.0
41230;BME280;26964;50.428;19.218;2023-04-15T03:46:33;1006.6;;;8.2;70.9
41230;BME280;26964;50.428;19.218;2023-04-15T03:47:33;1006.6;;;8.2;70.9
41230;BME280;26964;50.428;19.218;2023-04-15T03:48:32;1006.6;;;8.1;70.9
41230;BME280;26964;50.428;19.218;2023-04-15T03:49:33;1006.7;;;8.1;70.9
41230;BME280;26964;50.428;19.218;2023-04-15T03:50:33;1006.7;;;8.1;70.9
41230;BME280;26964;50.428;19.218;2023-04-15T03:51:32;1006.7;;;8.1;70.9
41230;BME280;26964;50.428;19.218;2023-04-15T03:52:32;1006.7;;;8.1;70.9
41230;BME280;26964;50.428;19.218;2023-04-15T03:53:33;1006.8;;;8.1;70.9
41230;BME280;26964;50.428;19.218;2023-04-15T03:54:33;1006.8;;;8.0;70.9
41230;BME280;26964;50.428;19.218;2023-04-15T03:55:33;1006.8;;;8.0;70.9
41230;BME280;26964;50.428;19.218;2023-04-15T03:56:33;1006.8;;;8.0;70.9
41230;BME280;26964;50.428;19.218;2023-04-15T03:57:32;1006.8;;;8.0;70.9
41230;BME280;26964;50.428;19.218;2023-04-15T03:58:33;1006.9;;;7.9;70.9
41230;BME280;26964;50.428;19.218;2023-04-15T03:59:32;1006.9;;;7.9;70.9
41230;BME280;26964;50.428;19.218;2023-04-15T04:00:33;1006.9;;;7.9;70.9
41230;BME280;26964;50.428;19.218;2023-04-15T04:01:33;1006.9;;;7.9;70.9
41230;BME280;26964;50.428;19.218;2023-04-15T04:02:33;1006.9;;;7.8;70.9
41230;BME280;26964;50.428;19.218;2023-04-15T04:03:33;1007.0;;;7.8;71.0
41230;BME280;26964;50.428;19.218;2023-04-15T04:04:33;1006.9;;;7.8;70.9
41230;BME280;26964;50.428;19.218;2023-04-15T04:05:32;1007.0;;;7.8;70.9
41230;BME280;26964;50.428;19.218;2023-04-15T04:06:33;1006.9;;;7.7;70.9
41230;BME280;26964;50.428;19.218;2023-04-15T04:07:33;1006.9;;;7.7;71.0
41230;BME280;26964;50.428;19.218;2023-04-15T04:08:33;1006.9;;;7.7;71.0
41230;BME280;26964;50.428;19.218;2023-04-15T04:09:33;1006.9;;;7.7;71.0
41230;BME280;26964;50.428;19.218;2023-04-15T04:10:32;1006.8;;;7.6;71.1
41230;BME280;26964;50.428;19.218;2023-04-15T04:11:33;1006.9;;;7.6;71.1
41230;BME280;26964;50.428;19.218;2023-04-15T04:12:33;1006.8;;;7.6;71.1
41230;BME280;26964;50.428;19.218;2023-04-15T04:13:33;1006.8;;;7.6;71.2
41230;BME280;26964;50.428;19.218;2023-04-15T04:14:33;1006.8;;;7.6;71.1
41230;BME280;26964;50.428;19.218;2023-04-15T04:15:33;1006.8;;;7.6;71.2
41230;BME280;26964;50.428;19.218;2023-04-15T04:16:32;1006.8;;;7.6;71.2
41230;BME280;26964;50.428;19.218;2023-04-15T04:17:32;1006.9;;;7.5;71.2
41230;BME280;26964;50.428;19.218;2023-04-15T04:18:33;1006.9;;;7.5;71.2
41230;BME280;26964;50.428;19.218;2023-04-15T04:19:32;1007.0;;;7.5;71.2
41230;BME280;26964;50.428;19.218;2023-04-15T04:20:32;1007.0;;;7.5;71.2
41230;BME280;26964;50.428;19.218;2023-04-15T04:21:32;1007.0;;;7.5;71.3
41230;BME280;26964;50.428;19.218;2023-04-15T04:22:36;1007.1;;;7.5;71.3
41230;BME280;26964;50.428;19.218;2023-04-15T04:23:32;1007.1;;;7.5;71.3
41230;BME280;26964;50.428;19.218;2023-04-15T04:24:32;1007.2;;;7.5;71.3
41230;BME280;26964;50.428;19.218;2023-04-15T04:25:33;1007.1;;;7.5;71.3
41230;BME280;26964;50.428;19.218;2023-04-15T04:26:33;1007.1;;;7.5;71.3
41230;BME280;26964;50.428;19.218;2023-04-15T04:27:33;1007.1;;;7.5;71.3
41230;BME280;26964;50.428;19.218;2023-04-15T04:28:32;1007.1;;;7.5;71.3
41230;BME280;26964;50.428;19.218;2023-04-15T04:29:33;1007.0;;;7.5;71.3
41230;BME280;26964;50.428;19.218;2023-04-15T04:30:34;1007.1;;;7.5;71.3
41230;BME280;26964;50.428;19.218;2023-04-15T04:31:33;1007.1;;;7.5;71.4
41230;BME280;26964;50.428;19.218;2023-04-15T04:32:32;1007.2;;;7.5;71.3
41230;BME280;26964;50.428;19.218;2023-04-15T04:33:32;1007.2;;;7.5;71.3
41230;BME280;26964;50.428;19.218;2023-04-15T04:34:32;1007.1;;;7.5;71.4
41230;BME280;26964;50.428;19.218;2023-04-15T04:35:32;1007.2;;;7.5;71.3
41230;BME280;26964;50.428;19.218;2023-04-15T04:37:33;1007.3;;;7.5;71.4
41230;BME280;26964;50.428;19.218;2023-04-15T04:38:32;1007.3;;;7.5;71.4
41230;BME280;26964;50.428;19.218;2023-04-15T04:39:32;1007.3;;;7.5;71.4
41230;BME280;26964;50.428;19.218;2023-04-15T04:40:32;1007.3;;;7.5;71.4
41230;BME280;26964;50.428;19.218;2023-04-15T04:41:32;1007.3;;;7.5;71.4
41230;BME280;26964;50.428;19.218;2023-04-15T04:42:32;1007.3;;;7.5;71.5
41230;BME280;26964;50.428;19.218;2023-04-15T04:43:32;1007.4;;;7.5;71.5
41230;BME280;26964;50.428;19.218;2023-04-15T04:44:33;1007.3;;;7.5;71.5
41230;BME280;26964;50.428;19.218;2023-04-15T04:45:33;1007.4;;;7.5;71.6
41230;BME280;26964;50.428;19.218;2023-04-15T04:46:32;1007.4;;;7.5;71.6
41230;BME280;26964;50.428;19.218;2023-04-15T04:47:32;1007.4;;;7.5;71.6
41230;BME280;26964;50.428;19.218;2023-04-15T04:48:33;1007.4;;;7.5;71.6
41230;BME280;26964;50.428;19.218;2023-04-15T04:49:32;1007.4;;;7.5;71.6
41230;BME280;26964;50.428;19.218;2023-04-15T04:50:32;1007.4;;;7.5;71.6
41230;BME280;26964;50.428;19.218;2023-04-15T04:51:33;1007.3;;;7.5;71.6
41230;BME280;26964;50.428;19.218;2023-04-15T04:52:33;1007.4;;;7.6;71.6
41230;BME280;26964;50.428;19.218;2023-04-15T04:53:32;1007.4;;;7.6;71.6
41230;BME280;26964;50.428;19.218;2023-04-15T04:54:32;1007.5;;;7.6;71.6
41230;BME280;26964;50.428;19.218;2023-04-15T04:55:32;1007.5;;;7.6;71.7
41230;BME280;26964;50.428;19.218;2023-04-15T04:56:33;1007.4;;;7.6;71.7
41230;BME280;26964;50.428;19.218;2023-04-15T04:57:33;1007.4;;;7.6;71.7
41230;BME280;26964;50.428;19.218;2023-04-15T04:58:33;1007.4;;;7.6;71.7
41230;BME280;26964;50.428;19.218;2023-04-15T04:59:32;1007.5;;;7.6;71.7
41230;BME280;26964;50.428;19.218;2023-04-15T05:00:33;1007.4;;;7.7;71.7
41230;BME280;26964;50.428;19.218;2023-04-15T05:01:32;1007.4;;;7.7;71.7
41230;BME280;26964;50.428;19.218;2023-04-15T05:02:32;1007.4;;;7.7;71.7
41230;BME280;26964;50.428;19.218;2023-04-15T05:03:33;1007.6;;;7.7;71.7
41230;BME280;26964;50.428;19.218;2023-04-15T05:04:33;1007.4;;;7.7;71.8
41230;BME280;26964;50.428;19.218;2023-04-15T05:05:33;1007.4;;;7.7;71.8
41230;BME280;26964;50.428;19.218;2023-04-15T05:06:32;1007.4;;;7.7;71.8
41230;BME280;26964;50.428;19.218;2023-04-15T05:07:33;1007.5;;;7.7;71.8
41230;BME280;26964;50.428;19.218;2023-04-15T05:08:33;1007.4;;;7.7;71.8
41230;BME280;26964;50.428;19.218;2023-04-15T05:09:33;1007.6;;;7.7;71.8
41230;BME280;26964;50.428;19.218;2023-04-15T05:10:33;1007.5;;;7.7;71.8
41230;BME280;26964;50.428;19.218;2023-04-15T05:11:32;1007.5;;;7.7;71.8
41230;BME280;26964;50.428;19.218;2023-04-15T05:12:32;1007.5;;;7.7;71.8
41230;BME280;26964;50.428;19.218;2023-04-15T05:13:32;1007.4;;;7.8;71.8
41230;BME280;26964;50.428;19.218;2023-04-15T05:14:32;1007.4;;;7.8;71.8
41230;BME280;26964;50.428;19.218;2023-04-15T05:15:33;1007.4;;;7.8;71.9
41230;BME280;26964;50.428;19.218;2023-04-15T05:16:32;1007.5;;;7.8;71.9
41230;BME280;26964;50.428;19.218;2023-04-15T05:17:32;1007.5;;;7.8;71.9
41230;BME280;26964;50.428;19.218;2023-04-15T05:18:32;1007.5;;;7.8;71.9
41230;BME280;26964;50.428;19.218;2023-04-15T05:19:32;1007.5;;;7.8;71.9
41230;BME280;26964;50.428;19.218;2023-04-15T05:20:32;1007.5;;;7.8;71.9
41230;BME280;26964;50.428;19.218;2023-04-15T05:21:32;1007.5;;;7.9;71.9
41230;BME280;26964;50.428;19.218;2023-04-15T05:22:32;1007.4;;;7.9;71.9
41230;BME280;26964;50.428;19.218;2023-04-15T05:23:32;1007.4;;;7.9;71.9
41230;BME280;26964;50.428;19.218;2023-04-15T05:24:32;1007.4;;;7.9;71.9
41230;BME280;26964;50.428;19.218;2023-04-15T05:25:33;1007.4;;;7.9;71.9
41230;BME280;26964;50.428;19.218;2023-04-15T05:26:32;1007.5;;;7.9;71.9
41230;BME280;26964;50.428;19.218;2023-04-15T05:27:33;1007.6;;;7.9;71.9
41230;BME280;26964;50.428;19.218;2023-04-15T05:28:33;1007.5;;;7.9;71.9
41230;BME280;26964;50.428;19.218;2023-04-15T05:29:32;1007.5;;;7.9;71.9
41230;BME280;26964;50.428;19.218;2023-04-15T05:30:32;1007.6;;;7.9;71.9
41230;BME280;26964;50.428;19.218;2023-04-15T05:31:32;1007.4;;;8.0;71.9
41230;BME280;26964;50.428;19.218;2023-04-15T05:32:33;1007.4;;;8.0;71.9
41230;BME280;26964;50.428;19.218;2023-04-15T05:33:32;1007.5;;;8.0;71.9
41230;BME280;26964;50.428;19.218;2023-04-15T05:34:33;1007.5;;;8.0;71.9
41230;BME280;26964;50.428;19.218;2023-04-15T05:35:32;1007.4;;;8.0;71.8
41230;BME280;26964;50.428;19.218;2023-04-15T05:36:32;1007.5;;;8.0;71.8